Time;durP1;ratioP1;P1;durP2;ratioP2;P2;SDS_P1;SDS_P2;PMS_P1;PMS_P2;Temp;Humidity;BMP_temperature;BMP_pressure;BME280_temperature;BME280_humidity;BME280_pressure;Samples;Min_cycle;Max_cycle;Signal;HPM_P1;HPM_P2
2022/09/07 00:00:40;;;;;;;;;;;19.40;99.90;;;;;;5054925;28;19915;-81
2022/09/07 00:03:06;;;;;;;;;;;19.50;99.90;;;;;;5056646;28;19980;-80
2022/09/07 00:05:32;;;;;;;;;;;19.40;99.90;;;;;;5054684;28;19909;-80
2022/09/07 00:07:58;;;;;;;;;;;19.50;99.90;;;;;;5055883;28;20043;-82
2022/09/07 00:10:24;;;;;;;;;;;19.50;99.90;;;;;;5056267;28;19935;-80
2022/09/07 00:12:50;;;;;;;;;;;19.60;99.90;;;;;;5052892;28;19909;-80
2022/09/07 00:15:15;;;;;;;;;;;19.60;99.90;;;;;;5053795;28;19916;-80
2022/09/07 00:17:41;;;;;;;;;;;19.70;99.90;;;;;;5053048;28;19958;-80
2022/09/07 00:20:07;;;;;;;;;;;19.80;99.90;;;;;;5053530;28;19908;-80
2022/09/07 00:22:33;;;;;;;;;;;19.90;99.90;;;;;;5053171;28;19991;-81
2022/09/07 00:24:58;;;;;;;;;;;19.80;99.90;;;;;;5053261;28;19951;-80
2022/09/07 00:27:24;;;;;;;;;;;19.80;99.90;;;;;;5051483;28;19968;-80
2022/09/07 00:29:49;;;;;;;;;;;19.80;99.90;;;;;;5052782;28;19908;-80
2022/09/07 00:32:15;;;;;;;;;;;19.80;99.90;;;;;;5053104;28;19909;-82
2022/09/07 00:34:40;;;;;;;;;;;19.80;99.90;;;;;;5068852;28;19909;-80
2022/09/07 00:37:06;;;;;;;;;;;19.70;99.90;;;;;;5052472;28;20065;-80
2022/09/07 00:39:32;;;;;;;;;;;19.70;99.90;;;;;;5053254;28;20291;-80
2022/09/07 00:41:58;;;;;;;;;;;19.80;99.90;;;;;;5053161;28;19998;-80
2022/09/07 00:44:42;;;;;;;;;;;19.80;99.90;;;;;;5053255;28;19959;-81
2022/09/07 00:47:10;;;;;;;;;;;19.80;99.90;;;;;;5052296;28;19924;-81
2022/09/07 00:49:37;;;;;;;;;;;19.80;99.90;;;;;;5051933;28;19908;-81
2022/09/07 00:52:05;;;;;;;;;;;19.80;99.90;;;;;;5053166;28;19959;-80
2022/09/07 00:54:54;;;;;;;;;;;19.70;99.90;;;;;;5052759;28;20363;-80
2022/09/07 00:57:20;;;;;;;;;;;19.80;99.90;;;;;;5042982;28;19909;-80
2022/09/07 00:59:49;;;;;;;;;;;19.80;99.90;;;;;;5052873;28;19915;-80
2022/09/07 01:02:16;;;;;;;;;;;19.80;99.90;;;;;;5051551;28;19908;-80
2022/09/07 01:04:42;;;;;;;;;;;19.80;99.90;;;;;;5052697;28;19931;-80
2022/09/07 01:07:08;;;;;;;;;;;19.90;99.90;;;;;;5051941;28;20044;-80
2022/09/07 01:09:33;;;;;;;;;;;19.80;99.90;;;;;;5068137;28;19912;-80
2022/09/07 01:11:59;;;;;;;;;;;19.80;99.90;;;;;;5052620;28;19908;-80
2022/09/07 01:14:27;;;;;;;;;;;19.70;99.90;;;;;;5052650;28;19909;-80
2022/09/07 01:16:57;;;;;;;;;;;19.70;99.90;;;;;;5050638;28;20113;-80
2022/09/07 01:19:36;;;;;;;;;;;19.80;99.90;;;;;;5052717;28;19916;-80
2022/09/07 01:22:01;;;;;;;;;;;19.80;99.90;;;;;;5052534;28;19908;-79
2022/09/07 01:24:42;;;;;;;;;;;19.80;99.90;;;;;;5052270;28;19909;-81
2022/09/07 01:27:26;;;;;;;;;;;19.80;99.90;;;;;;5050524;28;19917;-79
2022/09/07 01:29:51;;;;;;;;;;;19.70;99.90;;;;;;5052464;28;19955;-79
2022/09/07 01:32:23;;;;;;;;;;;19.70;99.90;;;;;;5052385;28;19908;-80
2022/09/07 01:34:51;;;;;;;;;;;19.70;99.90;;;;;;5051071;28;20338;-80
2022/09/07 01:37:32;;;;;;;;;;;19.70;99.90;;;;;;5050795;28;20284;-80
2022/09/07 01:40:24;;;;;;;;;;;19.70;99.90;;;;;;5052393;28;19935;-80
2022/09/07 01:42:53;;;;;;;;;;;19.80;99.90;;;;;;5056718;28;20442;-80
2022/09/07 01:45:20;;;;;;;;;;;19.80;99.90;;;;;;5057341;28;19915;-80
2022/09/07 01:47:49;;;;;;;;;;;19.80;99.90;;;;;;5058147;28;19924;-80
2022/09/07 01:50:21;;;;;;;;;;;19.70;99.90;;;;;;5058941;28;19908;-80
2022/09/07 01:52:49;;;;;;;;;;;19.80;99.90;;;;;;5058953;28;19956;-80
2022/09/07 01:55:22;;;;;;;;;;;19.80;99.90;;;;;;5057725;28;19908;-80
2022/09/07 01:57:52;;;;;;;;;;;19.80;99.90;;;;;;5058251;28;19959;-81
2022/09/07 02:00:18;;;;;;;;;;;19.80;99.90;;;;;;5058916;28;19913;-80
2022/09/07 02:02:49;;;;;;;;;;;19.80;99.90;;;;;;5059507;28;20641;-80
2022/09/07 02:05:32;;;;;;;;;;;19.70;99.90;;;;;;5060268;28;20376;-80
2022/09/07 02:07:59;;;;;;;;;;;19.70;99.90;;;;;;5059147;28;19973;-80
2022/09/07 02:10:33;;;;;;;;;;;19.70;99.90;;;;;;5059343;28;19909;-79
2022/09/07 02:13:05;;;;;;;;;;;19.70;99.90;;;;;;5058331;28;19931;-80
2022/09/07 02:15:34;;;;;;;;;;;19.70;99.90;;;;;;5059508;28;19916;-79
2022/09/07 02:18:01;;;;;;;;;;;19.70;99.90;;;;;;5059356;28;20357;-79
2022/09/07 02:20:37;;;;;;;;;;;19.80;99.90;;;;;;5058033;28;19913;-79
2022/09/07 02:23:05;;;;;;;;;;;19.80;99.90;;;;;;5059466;28;19916;-79
2022/09/07 02:25:43;;;;;;;;;;;19.80;99.90;;;;;;5059022;28;20016;-81
2022/09/07 02:28:11;;;;;;;;;;;19.80;99.90;;;;;;5059500;28;19954;-81
2022/09/07 02:30:37;;;;;;;;;;;19.90;99.90;;;;;;5058159;28;20286;-80
2022/09/07 02:33:02;;;;;;;;;;;19.90;99.90;;;;;;5059470;28;19909;-80
2022/09/07 02:35:28;;;;;;;;;;;19.80;99.90;;;;;;5059356;28;20218;-80
2022/09/07 02:37:53;;;;;;;;;;;19.80;99.90;;;;;;5059005;28;19959;-80
2022/09/07 02:40:19;;;;;;;;;;;19.70;99.90;;;;;;5059478;28;19909;-80
2022/09/07 02:42:45;;;;;;;;;;;19.70;99.90;;;;;;5059196;28;19935;-81
2022/09/07 02:45:12;;;;;;;;;;;19.70;99.90;;;;;;5059693;28;20419;-80
2022/09/07 02:47:44;;;;;;;;;;;19.70;99.90;;;;;;5058616;28;20003;-80
2022/09/07 02:50:27;;;;;;;;;;;19.60;99.90;;;;;;5059350;28;19916;-80
2022/09/07 02:52:56;;;;;;;;;;;19.60;99.90;;;;;;5056221;28;19915;-80
2022/09/07 02:55:30;;;;;;;;;;;19.50;99.90;;;;;;5055914;28;19909;-80
2022/09/07 02:58:08;;;;;;;;;;;19.50;99.90;;;;;;5054588;28;19909;-80
2022/09/07 03:00:36;;;;;;;;;;;19.50;99.90;;;;;;5056004;28;20330;-80
2022/09/07 03:03:08;;;;;;;;;;;19.40;99.90;;;;;;5054883;28;19908;-80
2022/09/07 03:05:43;;;;;;;;;;;19.40;99.90;;;;;;5054068;28;19965;-83
2022/09/07 03:08:14;;;;;;;;;;;19.40;99.90;;;;;;5053921;28;19913;-80
2022/09/07 03:10:40;;;;;;;;;;;19.30;99.90;;;;;;5055352;28;20011;-80
2022/09/07 03:13:05;;;;;;;;;;;19.30;99.90;;;;;;5055773;28;19955;-81
2022/09/07 03:15:31;;;;;;;;;;;19.20;99.90;;;;;;5054129;28;19909;-81
2022/09/07 03:17:56;;;;;;;;;;;19.30;99.90;;;;;;5053888;28;19932;-80
2022/09/07 03:20:22;;;;;;;;;;;19.20;99.90;;;;;;5053997;28;20372;-80
2022/09/07 03:22:49;;;;;;;;;;;19.20;99.90;;;;;;5055512;28;19909;-80
2022/09/07 03:25:15;;;;;;;;;;;19.20;99.90;;;;;;5055464;28;19916;-80
2022/09/07 03:27:40;;;;;;;;;;;19.20;99.90;;;;;;5054965;28;19913;-80
2022/09/07 03:30:06;;;;;;;;;;;19.20;99.90;;;;;;5070794;28;19963;-80
2022/09/07 03:32:33;;;;;;;;;;;19.20;99.90;;;;;;5054001;28;19909;-81
2022/09/07 03:34:59;;;;;;;;;;;19.20;99.90;;;;;;5055170;28;19909;-80
2022/09/07 03:37:24;;;;;;;;;;;19.20;99.90;;;;;;5053412;28;20356;-81
2022/09/07 03:39:50;;;;;;;;;;;19.20;99.90;;;;;;5055433;28;19909;-79
2022/09/07 03:42:15;;;;;;;;;;;19.20;99.90;;;;;;5053177;28;20379;-78
2022/09/07 03:44:41;;;;;;;;;;;19.20;99.90;;;;;;5054364;28;20004;-78
2022/09/07 03:47:06;;;;;;;;;;;19.30;99.90;;;;;;5053469;28;19920;-79
2022/09/07 03:49:32;;;;;;;;;;;19.20;99.90;;;;;;5054377;28;19969;-78
2022/09/07 03:51:57;;;;;;;;;;;19.20;99.90;;;;;;5054313;28;19995;-78
2022/09/07 03:54:23;;;;;;;;;;;19.20;99.90;;;;;;5054330;28;19963;-78
2022/09/07 03:56:48;;;;;;;;;;;19.20;99.90;;;;;;5053425;28;20490;-78
2022/09/07 03:59:14;;;;;;;;;;;19.20;99.90;;;;;;5054189;28;20379;-78
2022/09/07 04:01:39;;;;;;;;;;;19.20;99.90;;;;;;5054219;28;19909;-78
2022/09/07 04:04:04;;;;;;;;;;;19.20;99.90;;;;;;5053858;28;19909;-78
2022/09/07 04:06:30;;;;;;;;;;;19.20;99.90;;;;;;5053698;28;19915;-78
2022/09/07 04:08:56;;;;;;;;;;;19.20;99.90;;;;;;5054003;28;19912;-78
2022/09/07 04:11:22;;;;;;;;;;;19.10;99.90;;;;;;5053921;28;19955;-78
2022/09/07 04:13:47;;;;;;;;;;;19.10;99.90;;;;;;5054025;28;19959;-78
2022/09/07 04:16:18;;;;;;;;;;;19.10;99.90;;;;;;5053125;28;19909;-78
2022/09/07 04:18:44;;;;;;;;;;;19.20;99.90;;;;;;5053538;28;19948;-78
2022/09/07 04:21:10;;;;;;;;;;;19.10;99.90;;;;;;5053726;28;19909;-78
2022/09/07 04:23:37;;;;;;;;;;;19.10;99.90;;;;;;5052580;28;20428;-78
2022/09/07 04:26:03;;;;;;;;;;;19.10;99.90;;;;;;5055336;28;19917;-79
2022/09/07 04:28:28;;;;;;;;;;;19.10;99.90;;;;;;5059555;28;20467;-80
2022/09/07 04:30:54;;;;;;;;;;;19.10;99.90;;;;;;5060119;28;19909;-80
2022/09/07 04:33:19;;;;;;;;;;;19.10;99.90;;;;;;5074637;28;19909;-79
2022/09/07 04:35:45;;;;;;;;;;;19.00;99.90;;;;;;5058747;28;20338;-80
2022/09/07 04:38:12;;;;;;;;;;;19.00;99.90;;;;;;5058711;28;19909;-80
2022/09/07 04:40:37;;;;;;;;;;;19.00;99.90;;;;;;5058000;28;20506;-80
2022/09/07 04:43:04;;;;;;;;;;;19.00;99.90;;;;;;5058455;28;19948;-79
2022/09/07 04:45:30;;;;;;;;;;;18.90;99.90;;;;;;5059437;28;19909;-79
2022/09/07 04:47:55;;;;;;;;;;;18.80;99.90;;;;;;5102870;22;19989;-79
2022/09/07 04:50:22;;;;;;;;;;;18.80;99.90;;;;;;5095805;28;19908;-80
2022/09/07 04:52:48;;;;;;;;;;;18.80;99.90;;;;;;5096719;28;19908;-79
2022/09/07 04:55:13;;;;;;;;;;;18.80;99.90;;;;;;5095839;28;19973;-79
2022/09/07 04:57:39;;;;;;;;;;;18.80;99.90;;;;;;5096256;28;19915;-78
2022/09/07 05:00:08;;;;;;;;;;;18.80;99.90;;;;;;5094919;28;19931;-79
2022/09/07 05:02:34;;;;;;;;;;;18.80;99.90;;;;;;5097148;28;19908;-79
2022/09/07 05:04:59;;;;;;;;;;;18.80;99.90;;;;;;5095121;28;19959;-78
2022/09/07 05:07:25;;;;;;;;;;;18.80;99.90;;;;;;5095546;28;19924;-78
2022/09/07 05:09:50;;;;;;;;;;;18.80;99.90;;;;;;5096474;28;19973;-78
2022/09/07 05:12:16;;;;;;;;;;;18.80;99.90;;;;;;5096527;28;19909;-79
2022/09/07 05:14:41;;;;;;;;;;;18.90;99.90;;;;;;5095834;28;19908;-78
2022/09/07 05:17:07;;;;;;;;;;;18.80;99.90;;;;;;5094846;28;19912;-78
2022/09/07 05:19:33;;;;;;;;;;;18.90;99.90;;;;;;5094505;28;19968;-78
2022/09/07 05:21:58;;;;;;;;;;;18.90;99.90;;;;;;5095606;28;19916;-78
2022/09/07 05:24:25;;;;;;;;;;;18.90;99.90;;;;;;5095629;28;19940;-78
2022/09/07 05:26:51;;;;;;;;;;;18.90;99.90;;;;;;5095110;28;19908;-79
2022/09/07 05:29:16;;;;;;;;;;;19.00;99.90;;;;;;5094383;28;20041;-78
2022/09/07 05:31:42;;;;;;;;;;;19.00;99.90;;;;;;5093846;28;19912;-78
2022/09/07 05:34:08;;;;;;;;;;;19.00;99.90;;;;;;5093620;28;19916;-79
2022/09/07 05:36:33;;;;;;;;;;;19.00;99.90;;;;;;5094735;28;19934;-79
2022/09/07 05:38:59;;;;;;;;;;;19.00;99.90;;;;;;5094214;28;19915;-79
2022/09/07 05:41:25;;;;;;;;;;;19.10;99.90;;;;;;5095568;28;19970;-78
2022/09/07 05:43:51;;;;;;;;;;;19.10;99.90;;;;;;5093929;28;20383;-79
2022/09/07 05:46:17;;;;;;;;;;;19.10;99.90;;;;;;5094769;28;19954;-78
2022/09/07 05:48:43;;;;;;;;;;;19.20;99.90;;;;;;5093307;28;19916;-78
2022/09/07 05:51:10;;;;;;;;;;;19.20;99.90;;;;;;5094627;28;19929;-79
2022/09/07 05:53:36;;;;;;;;;;;19.20;99.90;;;;;;5095274;28;19915;-78
2022/09/07 05:56:02;;;;;;;;;;;19.20;99.90;;;;;;5092565;28;20003;-78
2022/09/07 05:58:27;;;;;;;;;;;19.30;99.90;;;;;;5094685;28;19947;-78
2022/09/07 06:01:00;;;;;;;;;;;19.30;99.90;;;;;;5092977;28;19915;-79
2022/09/07 06:03:26;;;;;;;;;;;19.40;99.90;;;;;;5094490;28;20000;-78
2022/09/07 06:06:05;;;;;;;;;;;19.40;99.90;;;;;;5093320;28;19908;-78
2022/09/07 06:08:32;;;;;;;;;;;19.40;99.90;;;;;;5092787;28;19920;-78
2022/09/07 06:10:58;;;;;;;;;;;19.60;99.90;;;;;;5091193;28;19908;-78
2022/09/07 06:13:23;;;;;;;;;;;19.60;99.90;;;;;;5092420;28;19914;-78
2022/09/07 06:15:49;;;;;;;;;;;19.70;99.90;;;;;;5092001;28;19962;-78
2022/09/07 06:18:14;;;;;;;;;;;19.70;99.90;;;;;;5091242;28;20356;-78
2022/09/07 06:20:40;;;;;;;;;;;19.90;99.90;;;;;;5092308;28;19916;-78
2022/09/07 06:23:06;;;;;;;;;;;19.90;99.90;;;;;;5092491;28;19916;-78
2022/09/07 06:25:31;;;;;;;;;;;20.10;99.90;;;;;;5090866;28;19908;-80
2022/09/07 06:27:58;;;;;;;;;;;20.20;99.90;;;;;;5091776;28;19916;-79
2022/09/07 06:30:24;;;;;;;;;;;20.10;99.90;;;;;;5095838;28;20314;-79
2022/09/07 06:32:49;;;;;;;;;;;20.10;99.90;;;;;;5096425;28;19908;-79
2022/09/07 06:35:15;;;;;;;;;;;20.20;99.90;;;;;;5095841;28;20045;-79
2022/09/07 06:37:40;;;;;;;;;;;20.30;99.90;;;;;;5095569;28;19908;-79
2022/09/07 06:40:07;;;;;;;;;;;20.40;99.90;;;;;;5095811;28;19908;-79
2022/09/07 06:42:32;;;;;;;;;;;20.40;99.90;;;;;;5095921;28;20396;-79
2022/09/07 06:44:58;;;;;;;;;;;20.50;99.90;;;;;;5094433;28;19955;-79
2022/09/07 06:47:23;;;;;;;;;;;20.50;99.90;;;;;;5094874;28;19916;-79
2022/09/07 06:49:49;;;;;;;;;;;20.60;99.90;;;;;;5095660;28;20390;-79
2022/09/07 06:52:14;;;;;;;;;;;20.70;99.90;;;;;;5095650;28;20003;-79
2022/09/07 06:54:40;;;;;;;;;;;20.70;99.90;;;;;;5095472;28;19908;-78
2022/09/07 06:57:07;;;;;;;;;;;20.80;99.90;;;;;;5094922;28;19931;-79
2022/09/07 06:59:33;;;;;;;;;;;20.90;99.90;;;;;;5095688;28;20295;-79
2022/09/07 07:01:59;;;;;;;;;;;21.00;99.90;;;;;;5095467;28;20007;-79
2022/09/07 07:04:24;;;;;;;;;;;21.00;99.90;;;;;;5095387;28;19947;-79
2022/09/07 07:06:50;;;;;;;;;;;21.10;99.90;;;;;;5094716;28;19909;-79
2022/09/07 07:09:15;;;;;;;;;;;21.20;99.90;;;;;;5093890;28;19912;-79
2022/09/07 07:11:42;;;;;;;;;;;21.20;99.90;;;;;;5095177;28;19961;-79
2022/09/07 07:14:09;;;;;;;;;;;21.30;99.90;;;;;;5095513;28;19915;-79
2022/09/07 07:16:35;;;;;;;;;;;21.30;99.90;;;;;;5094552;28;19908;-79
2022/09/07 07:19:00;;;;;;;;;;;21.40;99.90;;;;;;5095271;28;20382;-79
2022/09/07 07:21:26;;;;;;;;;;;21.40;99.90;;;;;;5093884;28;19909;-79
2022/09/07 07:23:52;;;;;;;;;;;21.40;99.90;;;;;;5094634;28;19912;-79
2022/09/07 07:26:19;;;;;;;;;;;21.50;99.90;;;;;;5092471;28;20280;-79
2022/09/07 07:28:46;;;;;;;;;;;21.70;99.90;;;;;;5094865;28;19926;-79
2022/09/07 07:31:12;;;;;;;;;;;21.80;99.90;;;;;;5094807;28;19908;-79
2022/09/07 07:33:38;;;;;;;;;;;22.00;99.90;;;;;;5094649;28;19908;-79
2022/09/07 07:36:11;;;;;;;;;;;22.10;99.90;;;;;;5092960;28;19930;-79
2022/09/07 07:38:37;;;;;;;;;;;22.30;99.90;;;;;;5094607;28;20268;-79
2022/09/07 07:41:03;;;;;;;;;;;22.30;99.90;;;;;;5094063;28;20322;-80
2022/09/07 07:43:28;;;;;;;;;;;22.50;99.90;;;;;;5094676;28;19916;-79
2022/09/07 07:45:54;;;;;;;;;;;22.50;99.90;;;;;;5092562;28;19916;-78
2022/09/07 07:48:20;;;;;;;;;;;22.50;99.90;;;;;;5092093;28;20355;-80
2022/09/07 07:50:55;;;;;;;;;;;22.50;99.90;;;;;;5091704;28;19912;-80
2022/09/07 07:53:21;;;;;;;;;;;22.60;99.90;;;;;;5092008;28;19908;-79
2022/09/07 07:55:46;;;;;;;;;;;22.60;99.90;;;;;;5093808;28;19915;-79
2022/09/07 07:58:12;;;;;;;;;;;22.70;99.90;;;;;;5094480;28;20402;-80
2022/09/07 08:00:37;;;;;;;;;;;22.80;99.90;;;;;;5094040;28;20291;-80
2022/09/07 08:03:03;;;;;;;;;;;22.80;99.90;;;;;;5094230;28;19955;-81
2022/09/07 08:05:28;;;;;;;;;;;22.80;99.90;;;;;;5093627;28;20375;-82
2022/09/07 08:07:54;;;;;;;;;;;22.80;99.90;;;;;;5093548;28;20002;-82
2022/09/07 08:10:21;;;;;;;;;;;22.80;99.90;;;;;;5093014;28;19916;-82
2022/09/07 08:12:46;;;;;;;;;;;23.00;99.90;;;;;;5092263;28;20390;-82
2022/09/07 08:15:12;;;;;;;;;;;23.10;99.90;;;;;;5104824;28;19911;-83
2022/09/07 08:17:37;;;;;;;;;;;23.10;99.90;;;;;;5096118;28;19958;-83
2022/09/07 08:20:03;;;;;;;;;;;23.00;99.90;;;;;;5092320;28;20002;-82
2022/09/07 08:22:28;;;;;;;;;;;22.90;99.90;;;;;;5079594;28;19908;-81
2022/09/07 08:24:54;;;;;;;;;;;22.80;99.90;;;;;;5073528;28;20367;-81
2022/09/07 08:27:19;;;;;;;;;;;22.70;99.90;;;;;;5072653;28;19912;-81
2022/09/07 08:29:45;;;;;;;;;;;22.60;99.90;;;;;;5073553;28;20011;-83
2022/09/07 08:32:11;;;;;;;;;;;22.70;99.90;;;;;;5085943;28;19908;-82
2022/09/07 08:34:36;;;;;;;;;;;22.80;99.90;;;;;;5090406;28;19908;-83
2022/09/07 08:37:02;;;;;;;;;;;22.90;99.90;;;;;;5072538;28;19912;-82
2022/09/07 08:39:27;;;;;;;;;;;22.90;99.90;;;;;;5073025;28;19909;-83
2022/09/07 08:41:56;;;;;;;;;;;23.00;99.90;;;;;;5072380;28;19908;-83
2022/09/07 08:44:30;;;;;;;;;;;23.20;99.90;;;;;;5074088;28;19908;-85
2022/09/07 08:46:59;;;;;;;;;;;23.30;99.90;;;;;;5071316;28;19923;-85
2022/09/07 08:49:32;;;;;;;;;;;23.50;99.90;;;;;;5073242;28;19923;-84
2022/09/07 08:52:01;;;;;;;;;;;23.60;99.90;;;;;;5072670;28;19912;-83
2022/09/07 08:54:27;;;;;;;;;;;23.60;99.90;;;;;;5073759;28;19999;-84
2022/09/07 08:56:54;;;;;;;;;;;23.80;99.90;;;;;;5071545;28;19952;-83
2022/09/07 08:59:30;;;;;;;;;;;24.00;99.90;;;;;;5073383;28;20442;-83
2022/09/07 09:01:55;;;;;;;;;;;24.20;99.90;;;;;;5073065;28;20315;-83
2022/09/07 09:04:22;;;;;;;;;;;24.60;99.90;;;;;;5073193;28;19909;-84
2022/09/07 09:07:03;;;;;;;;;;;26.10;99.90;;;;;;5072842;28;19916;-83
2022/09/07 09:09:33;;;;;;;;;;;27.60;99.90;;;;;;5073208;28;19912;-83
2022/09/07 09:12:18;;;;;;;;;;;29.40;99.90;;;;;;5072229;28;19963;-84
2022/09/07 09:14:55;;;;;;;;;;;31.20;99.90;;;;;;5073061;28;19908;-84
2022/09/07 09:17:24;;;;;;;;;;;32.20;99.90;;;;;;5071557;28;19909;-85
2022/09/07 09:19:57;;;;;;;;;;;32.50;99.90;;;;;;5072699;28;20376;-84
2022/09/07 09:22:25;;;;;;;;;;;33.10;99.90;;;;;;5072229;28;19959;-84
2022/09/07 09:24:55;;;;;;;;;;;33.50;99.90;;;;;;5071426;28;19965;-84
2022/09/07 09:27:21;;;;;;;;;;;34.70;99.90;;;;;;5070992;28;19912;-84
2022/09/07 09:29:46;;;;;;;;;;;35.00;96.90;;;;;;5072907;28;19909;-84
2022/09/07 09:32:47;;;;;;;;;;;35.40;97.10;;;;;;5072044;28;19939;-83
2022/09/07 09:35:19;;;;;;;;;;;35.40;93.30;;;;;;4993993;28;20369;-84
2022/09/07 09:37:44;;;;;;;;;;;35.00;95.60;;;;;;5062352;28;19909;-83
2022/09/07 09:40:17;;;;;;;;;;;35.30;92.20;;;;;;5071413;28;20003;-83
2022/09/07 09:42:43;;;;;;;;;;;35.00;92.30;;;;;;5071801;28;19908;-83
2022/09/07 09:45:15;;;;;;;;;;;34.60;91.80;;;;;;5072427;28;20352;-83
2022/09/07 09:47:45;;;;;;;;;;;33.60;91.00;;;;;;5070569;28;20017;-83
2022/09/07 09:50:17;;;;;;;;;;;32.60;94.90;;;;;;5071264;28;19912;-83
2022/09/07 09:52:44;;;;;;;;;;;31.80;95.70;;;;;;5073448;28;19908;-83
2022/09/07 09:55:22;;;;;;;;;;;31.00;99.90;;;;;;5074834;28;19912;-84
2022/09/07 09:57:52;;;;;;;;;;;30.30;99.90;;;;;;5095127;28;19920;-84
2022/09/07 10:00:19;;;;;;;;;;;29.90;99.90;;;;;;5103992;28;19904;-84
2022/09/07 10:03:03;;;;;;;;;;;29.70;99.90;;;;;;5089396;28;19915;-84
2022/09/07 10:05:33;;;;;;;;;;;29.70;99.90;;;;;;5085382;28;19940;-84
2022/09/07 10:07:59;;;;;;;;;;;29.40;99.90;;;;;;5085146;28;19912;-85
2022/09/07 10:10:25;;;;;;;;;;;29.20;99.90;;;;;;5084293;28;19966;-85
2022/09/07 10:12:54;;;;;;;;;;;29.00;99.90;;;;;;5083859;28;19908;-84
2022/09/07 10:15:25;;;;;;;;;;;28.90;99.90;;;;;;5082436;28;19909;-84
2022/09/07 10:17:50;;;;;;;;;;;28.60;99.90;;;;;;5082245;28;19915;-81
2022/09/07 10:20:16;;;;;;;;;;;28.10;99.90;;;;;;5082447;28;19991;-81
2022/09/07 10:23:02;;;;;;;;;;;28.00;99.90;;;;;;5079026;28;19913;-82
2022/09/07 10:25:32;;;;;;;;;;;28.00;99.90;;;;;;5077077;28;19962;-82
2022/09/07 10:28:18;;;;;;;;;;;28.20;99.90;;;;;;5084009;28;19920;-81
2022/09/07 10:31:05;;;;;;;;;;;28.20;99.90;;;;;;5090042;28;19913;-80
2022/09/07 10:33:49;;;;;;;;;;;27.70;99.90;;;;;;5098086;28;19908;-81
2022/09/07 10:36:22;;;;;;;;;;;27.30;99.90;;;;;;5095255;28;19912;-81
2022/09/07 10:39:08;;;;;;;;;;;27.10;99.90;;;;;;5091012;28;20462;-80
2022/09/07 10:41:44;;;;;;;;;;;27.10;99.90;;;;;;5084557;28;20417;-80
2022/09/07 10:44:40;;;;;;;;;;;27.00;99.90;;;;;;5095855;28;19908;-82
2022/09/07 10:47:09;;;;;;;;;;;27.00;99.90;;;;;;5096774;28;20345;-81
2022/09/07 10:49:41;;;;;;;;;;;27.00;99.90;;;;;;5098270;28;20331;-82
2022/09/07 10:52:26;;;;;;;;;;;27.10;99.90;;;;;;5096630;28;19908;-82
2022/09/07 10:55:03;;;;;;;;;;;27.10;99.90;;;;;;5095886;28;19908;-81
2022/09/07 10:57:28;;;;;;;;;;;26.90;99.90;;;;;;5097020;28;19915;-80
2022/09/07 11:00:11;;;;;;;;;;;26.70;99.90;;;;;;5096338;28;19920;-80
2022/09/07 11:02:56;;;;;;;;;;;26.30;99.90;;;;;;5098233;28;19908;-81
2022/09/07 11:05:30;;;;;;;;;;;26.10;99.90;;;;;;5075502;28;19968;-81
2022/09/07 11:07:58;;;;;;;;;;;26.10;99.90;;;;;;5097228;28;19954;-81
2022/09/07 11:10:42;;;;;;;;;;;26.10;99.90;;;;;;5097072;28;19912;-81
2022/09/07 11:13:10;;;;;;;;;;;26.30;99.90;;;;;;5097276;28;20330;-81
2022/09/07 11:15:41;;;;;;;;;;;26.30;99.90;;;;;;5095484;28;20264;-81
2022/09/07 11:18:11;;;;;;;;;;;26.20;99.90;;;;;;5096693;28;20287;-81
2022/09/07 11:20:39;;;;;;;;;;;26.30;99.90;;;;;;5096858;28;20284;-81
2022/09/07 11:23:14;;;;;;;;;;;26.40;99.90;;;;;;5096577;28;19908;-82
2022/09/07 11:25:42;;;;;;;;;;;26.50;99.90;;;;;;5095204;28;19908;-82
2022/09/07 11:28:11;;;;;;;;;;;26.80;99.90;;;;;;5096839;28;19937;-82
2022/09/07 11:30:40;;;;;;;;;;;26.80;99.90;;;;;;5096449;28;19917;-81
2022/09/07 11:33:12;;;;;;;;;;;26.80;99.90;;;;;;5095121;28;19919;-81
2022/09/07 11:35:46;;;;;;;;;;;26.80;99.90;;;;;;5096573;28;19908;-81
2022/09/07 11:38:24;;;;;;;;;;;26.70;99.90;;;;;;5095647;28;20397;-82
2022/09/07 11:40:57;;;;;;;;;;;26.70;99.90;;;;;;5096249;28;19908;-82
2022/09/07 11:43:35;;;;;;;;;;;26.70;99.90;;;;;;5096830;28;19908;-83
2022/09/07 11:46:08;;;;;;;;;;;26.80;99.90;;;;;;5097051;28;19908;-83
2022/09/07 11:48:47;;;;;;;;;;;27.00;99.90;;;;;;5095161;28;19919;-84
2022/09/07 11:51:31;;;;;;;;;;;27.20;99.90;;;;;;5096235;28;19912;-84
2022/09/07 11:54:00;;;;;;;;;;;27.30;99.90;;;;;;5094264;28;19909;-84
2022/09/07 11:56:29;;;;;;;;;;;27.10;99.90;;;;;;5089277;28;19912;-82
2022/09/07 11:59:01;;;;;;;;;;;27.00;99.90;;;;;;5092809;28;19908;-85
2022/09/07 12:01:45;;;;;;;;;;;27.00;99.90;;;;;;5093320;28;20309;-88
2022/09/07 12:04:11;;;;;;;;;;;27.10;99.90;;;;;;5093110;28;20284;-87
2022/09/07 12:06:55;;;;;;;;;;;27.30;99.90;;;;;;5092323;28;19908;-87
2022/09/07 12:09:48;;;;;;;;;;;27.50;99.90;;;;;;5093298;28;19912;-85
2022/09/07 12:12:17;;;;;;;;;;;27.70;99.90;;;;;;5094199;28;19951;-86
2022/09/07 12:14:45;;;;;;;;;;;27.70;99.90;;;;;;5092772;28;20011;-86
2022/09/07 12:17:22;;;;;;;;;;;27.60;99.90;;;;;;5092504;28;19908;-86
2022/09/07 12:20:14;;;;;;;;;;;27.50;99.90;;;;;;5093433;28;19914;-86
2022/09/07 12:22:55;;;;;;;;;;;27.40;99.90;;;;;;5089406;28;20025;-86
2022/09/07 12:25:20;;;;;;;;;;;27.60;99.90;;;;;;5093870;28;19912;-86
2022/09/07 12:27:46;;;;;;;;;;;27.80;99.90;;;;;;5092161;28;19918;-85
2022/09/07 12:30:11;;;;;;;;;;;28.10;99.90;;;;;;5092439;28;19912;-88
2022/09/07 12:32:40;;;;;;;;;;;28.20;99.90;;;;;;5092768;28;19909;-88
2022/09/07 12:35:25;;;;;;;;;;;28.20;99.90;;;;;;5077668;28;19909;-86
2022/09/07 12:37:51;;;;;;;;;;;28.20;99.90;;;;;;5071323;28;20003;-87
2022/09/07 12:40:26;;;;;;;;;;;28.20;99.90;;;;;;5072767;28;19909;-87
2022/09/07 12:43:10;;;;;;;;;;;28.20;99.90;;;;;;5073320;28;19912;-86
2022/09/07 12:45:36;;;;;;;;;;;28.50;99.90;;;;;;5071095;28;19908;-88
2022/09/07 12:48:10;;;;;;;;;;;28.50;99.90;;;;;;5072033;28;19928;-87
2022/09/07 12:50:40;;;;;;;;;;;28.30;99.90;;;;;;5073574;28;19995;-86
2022/09/07 12:53:06;;;;;;;;;;;28.20;99.90;;;;;;5071586;28;19957;-88
2022/09/07 12:55:36;;;;;;;;;;;28.10;99.90;;;;;;5071256;28;19912;-88
2022/09/07 12:58:20;;;;;;;;;;;28.10;99.90;;;;;;5071813;28;19920;-85
2022/09/07 13:00:48;;;;;;;;;;;28.00;99.90;;;;;;5072940;28;19908;-86
2022/09/07 13:03:14;;;;;;;;;;;27.80;99.90;;;;;;5071561;28;19965;-87
2022/09/07 13:06:03;;;;;;;;;;;27.70;99.90;;;;;;5070772;28;19991;-87
2022/09/07 13:08:41;;;;;;;;;;;27.80;99.90;;;;;;5058162;28;20004;-87
2022/09/07 13:11:37;;;;;;;;;;;28.10;99.90;;;;;;5071278;28;19923;-85
2022/09/07 13:14:22;;;;;;;;;;;28.30;99.90;;;;;;5051649;28;19916;-89
2022/09/07 13:17:09;;;;;;;;;;;28.40;99.90;;;;;;5070375;28;19908;-88
2022/09/07 13:19:50;;;;;;;;;;;28.50;99.90;;;;;;5071388;28;19923;-91
2022/09/07 13:22:28;;;;;;;;;;;28.70;99.90;;;;;;5071677;28;19916;-90
2022/09/07 13:24:55;;;;;;;;;;;28.50;99.90;;;;;;5071070;28;19912;-89
2022/09/07 13:27:24;;;;;;;;;;;28.50;99.90;;;;;;5070582;28;19995;-89
2022/09/07 13:29:57;;;;;;;;;;;28.60;99.90;;;;;;5071446;28;20319;-89
2022/09/07 13:32:29;;;;;;;;;;;28.60;99.90;;;;;;5071572;28;19908;-89
2022/09/07 13:35:13;;;;;;;;;;;28.40;99.90;;;;;;5071218;28;19908;-89
2022/09/07 13:37:51;;;;;;;;;;;28.30;99.90;;;;;;5070431;28;19908;-87
2022/09/07 13:40:18;;;;;;;;;;;28.20;99.90;;;;;;5070891;28;19909;-89
2022/09/07 13:42:44;;;;;;;;;;;28.30;99.90;;;;;;5071602;28;19915;-89
2022/09/07 13:45:25;;;;;;;;;;;28.40;99.90;;;;;;5071427;28;19947;-91
2022/09/07 13:48:00;;;;;;;;;;;28.30;99.90;;;;;;5070623;28;19917;-88
2022/09/07 13:50:55;;;;;;;;;;;28.50;99.90;;;;;;5072533;28;19908;-85
2022/09/07 13:53:40;;;;;;;;;;;28.50;99.90;;;;;;5049798;28;19909;-87
2022/09/07 13:56:08;;;;;;;;;;;28.60;99.90;;;;;;5076666;28;19909;-87
2022/09/07 13:58:35;;;;;;;;;;;28.70;99.90;;;;;;5071520;28;19908;-87
2022/09/07 14:01:05;;;;;;;;;;;28.80;99.90;;;;;;5072382;28;20007;-86
2022/09/07 14:03:51;;;;;;;;;;;29.00;99.90;;;;;;5089901;28;19912;-85
2022/09/07 14:06:19;;;;;;;;;;;29.10;99.90;;;;;;5071305;28;19920;-87
2022/09/07 14:08:55;;;;;;;;;;;29.10;99.90;;;;;;5071776;28;19964;-87
2022/09/07 14:11:21;;;;;;;;;;;29.20;99.90;;;;;;5073940;28;20260;-85
2022/09/07 14:14:05;;;;;;;;;;;29.20;99.90;;;;;;5084425;28;19996;-85
2022/09/07 14:16:31;;;;;;;;;;;29.30;99.90;;;;;;5092963;28;19908;-86
2022/09/07 14:18:57;;;;;;;;;;;29.40;99.40;;;;;;5094200;28;19916;-85
2022/09/07 14:21:22;;;;;;;;;;;29.50;99.80;;;;;;5091821;28;20352;-86
2022/09/07 14:23:49;;;;;;;;;;;29.70;98.10;;;;;;5091925;28;19968;-85
2022/09/07 14:26:14;;;;;;;;;;;29.90;99.20;;;;;;5090289;28;19915;-86
2022/09/07 14:28:40;;;;;;;;;;;29.90;98.90;;;;;;5091178;28;19916;-85
2022/09/07 14:31:09;;;;;;;;;;;30.10;99.90;;;;;;5091875;28;20283;-86